sensor_id;sensor_type;location;lat;lon;timestamp;P1;durP1;ratioP1;P2;durP2;ratioP2
69890;SDS011;57170;43.964;21.262;2023-05-07T00:00:59;9.38;;;6.85;;
69890;SDS011;57170;43.964;21.262;2023-05-07T00:03:26;10.45;;;6.82;;
69890;SDS011;57170;43.964;21.262;2023-05-07T00:05:52;9.23;;;6.68;;
69890;SDS011;57170;43.964;21.262;2023-05-07T00:08:18;9.70;;;6.85;;
69890;SDS011;57170;43.964;21.262;2023-05-07T00:10:45;10.02;;;7.32;;
69890;SDS011;57170;43.964;21.262;2023-05-07T00:13:11;12.93;;;7.50;;
69890;SDS011;57170;43.964;21.262;2023-05-07T00:15:38;8.35;;;6.10;;
69890;SDS011;57170;43.964;21.262;2023-05-07T00:18:04;9.00;;;6.75;;
69890;SDS011;57170;43.964;21.262;2023-05-07T00:20:30;9.65;;;6.93;;
69890;SDS011;57170;43.964;21.262;2023-05-07T00:22:56;8.40;;;6.90;;
69890;SDS011;57170;43.964;21.262;2023-05-07T00:25:22;9.18;;;7.25;;
69890;SDS011;57170;43.964;21.262;2023-05-07T00:27:48;10.85;;;7.05;;
69890;SDS011;57170;43.964;21.262;2023-05-07T00:30:14;9.40;;;6.70;;
69890;SDS011;57170;43.964;21.262;2023-05-07T00:32:41;8.32;;;6.82;;
69890;SDS011;57170;43.964;21.262;2023-05-07T00:35:07;10.60;;;6.43;;
69890;SDS011;57170;43.964;21.262;2023-05-07T00:37:33;8.68;;;7.15;;
69890;SDS011;57170;43.964;21.262;2023-05-07T00:39:59;9.90;;;7.05;;
69890;SDS011;57170;43.964;21.262;2023-05-07T00:42:28;9.25;;;6.70;;
69890;SDS011;57170;43.964;21.262;2023-05-07T00:44:54;8.98;;;6.43;;
69890;SDS011;57170;43.964;21.262;2023-05-07T00:47:20;9.20;;;6.95;;
69890;SDS011;57170;43.964;21.262;2023-05-07T00:49:46;7.85;;;6.80;;
69890;SDS011;57170;43.964;21.262;2023-05-07T00:52:16;9.18;;;7.00;;
69890;SDS011;57170;43.964;21.262;2023-05-07T00:54:43;10.23;;;8.07;;
69890;SDS011;57170;43.964;21.262;2023-05-07T00:57:10;9.13;;;6.57;;
69890;SDS011;57170;43.964;21.262;2023-05-07T00:59:36;7.00;;;6.30;;
69890;SDS011;57170;43.964;21.262;2023-05-07T01:02:02;11.32;;;7.85;;
69890;SDS011;57170;43.964;21.262;2023-05-07T01:04:28;9.75;;;7.05;;
69890;SDS011;57170;43.964;21.262;2023-05-07T01:06:55;7.43;;;6.03;;
69890;SDS011;57170;43.964;21.262;2023-05-07T01:09:23;9.77;;;6.75;;
69890;SDS011;57170;43.964;21.262;2023-05-07T01:11:50;12.15;;;7.40;;
69890;SDS011;57170;43.964;21.262;2023-05-07T01:14:17;7.40;;;6.47;;
69890;SDS011;57170;43.964;21.262;2023-05-07T01:16:43;7.70;;;6.63;;
69890;SDS011;57170;43.964;21.262;2023-05-07T01:19:09;8.27;;;6.78;;
69890;SDS011;57170;43.964;21.262;2023-05-07T01:21:39;10.02;;;7.93;;
69890;SDS011;57170;43.964;21.262;2023-05-07T01:24:11;10.65;;;6.70;;
69890;SDS011;57170;43.964;21.262;2023-05-07T01:26:37;14.88;;;7.55;;
69890;SDS011;57170;43.964;21.262;2023-05-07T01:29:03;7.70;;;6.05;;
69890;SDS011;57170;43.964;21.262;2023-05-07T01:31:30;9.75;;;7.50;;
69890;SDS011;57170;43.964;21.262;2023-05-07T01:33:56;8.93;;;7.22;;
69890;SDS011;57170;43.964;21.262;2023-05-07T01:36:23;11.88;;;7.70;;
69890;SDS011;57170;43.964;21.262;2023-05-07T01:38:52;7.70;;;6.50;;
69890;SDS011;57170;43.964;21.262;2023-05-07T01:41:18;9.55;;;7.97;;
69890;SDS011;57170;43.964;21.262;2023-05-07T01:43:45;10.45;;;7.28;;
69890;SDS011;57170;43.964;21.262;2023-05-07T01:46:12;8.45;;;7.28;;
69890;SDS011;57170;43.964;21.262;2023-05-07T01:48:38;8.95;;;7.32;;
69890;SDS011;57170;43.964;21.262;2023-05-07T01:51:05;9.70;;;7.65;;
69890;SDS011;57170;43.964;21.262;2023-05-07T01:53:38;8.95;;;6.53;;
69890;SDS011;57170;43.964;21.262;2023-05-07T01:56:04;9.23;;;7.18;;
69890;SDS011;57170;43.964;21.262;2023-05-07T01:58:30;8.20;;;6.50;;
69890;SDS011;57170;43.964;21.262;2023-05-07T02:00:56;9.23;;;6.85;;
69890;SDS011;57170;43.964;21.262;2023-05-07T02:03:23;10.43;;;6.97;;
69890;SDS011;57170;43.964;21.262;2023-05-07T02:05:49;9.02;;;7.38;;
69890;SDS011;57170;43.964;21.262;2023-05-07T02:08:15;9.77;;;6.90;;
69890;SDS011;57170;43.964;21.262;2023-05-07T02:10:41;10.68;;;7.32;;
69890;SDS011;57170;43.964;21.262;2023-05-07T02:13:07;8.77;;;7.35;;
69890;SDS011;57170;43.964;21.262;2023-05-07T02:15:33;8.30;;;7.20;;
69890;SDS011;57170;43.964;21.262;2023-05-07T02:18:06;8.00;;;6.45;;
69890;SDS011;57170;43.964;21.262;2023-05-07T02:20:32;8.18;;;6.88;;
69890;SDS011;57170;43.964;21.262;2023-05-07T02:22:58;8.52;;;7.18;;
69890;SDS011;57170;43.964;21.262;2023-05-07T02:25:25;10.30;;;7.75;;
69890;SDS011;57170;43.964;21.262;2023-05-07T02:27:51;9.20;;;7.40;;
69890;SDS011;57170;43.964;21.262;2023-05-07T02:30:17;9.50;;;7.80;;
69890;SDS011;57170;43.964;21.262;2023-05-07T02:32:46;10.57;;;6.65;;
69890;SDS011;57170;43.964;21.262;2023-05-07T02:35:12;8.65;;;7.05;;
69890;SDS011;57170;43.964;21.262;2023-05-07T02:37:38;11.35;;;7.88;;
69890;SDS011;57170;43.964;21.262;2023-05-07T02:40:04;9.57;;;6.20;;
69890;SDS011;57170;43.964;21.262;2023-05-07T02:42:30;10.73;;;7.07;;
69890;SDS011;57170;43.964;21.262;2023-05-07T02:44:56;10.30;;;7.15;;
69890;SDS011;57170;43.964;21.262;2023-05-07T02:47:23;8.25;;;7.35;;
69890;SDS011;57170;43.964;21.262;2023-05-07T02:49:49;10.95;;;7.70;;
69890;SDS011;57170;43.964;21.262;2023-05-07T02:52:15;9.73;;;7.65;;
69890;SDS011;57170;43.964;21.262;2023-05-07T02:54:41;9.38;;;7.88;;
69890;SDS011;57170;43.964;21.262;2023-05-07T02:57:07;10.38;;;8.35;;
69890;SDS011;57170;43.964;21.262;2023-05-07T02:59:33;12.38;;;7.70;;
69890;SDS011;57170;43.964;21.262;2023-05-07T03:01:59;8.50;;;7.15;;
69890;SDS011;57170;43.964;21.262;2023-05-07T03:04:25;11.70;;;7.82;;
69890;SDS011;57170;43.964;21.262;2023-05-07T03:06:51;10.88;;;7.15;;
69890;SDS011;57170;43.964;21.262;2023-05-07T03:09:17;11.20;;;7.68;;
69890;SDS011;57170;43.964;21.262;2023-05-07T03:11:44;9.85;;;7.63;;
69890;SDS011;57170;43.964;21.262;2023-05-07T03:14:10;11.23;;;8.18;;
69890;SDS011;57170;43.964;21.262;2023-05-07T03:16:36;9.60;;;8.00;;
69890;SDS011;57170;43.964;21.262;2023-05-07T03:19:02;10.00;;;7.85;;
69890;SDS011;57170;43.964;21.262;2023-05-07T03:21:28;11.50;;;8.18;;
69890;SDS011;57170;43.964;21.262;2023-05-07T03:23:55;13.65;;;8.60;;
69890;SDS011;57170;43.964;21.262;2023-05-07T03:26:21;8.75;;;6.88;;
69890;SDS011;57170;43.964;21.262;2023-05-07T03:28:47;8.75;;;7.35;;
69890;SDS011;57170;43.964;21.262;2023-05-07T03:31:14;8.68;;;6.78;;
69890;SDS011;57170;43.964;21.262;2023-05-07T03:33:53;9.68;;;6.80;;
69890;SDS011;57170;43.964;21.262;2023-05-07T03:36:19;9.50;;;7.05;;
69890;SDS011;57170;43.964;21.262;2023-05-07T03:38:46;9.43;;;8.02;;
69890;SDS011;57170;43.964;21.262;2023-05-07T03:41:12;9.57;;;7.57;;
69890;SDS011;57170;43.964;21.262;2023-05-07T03:43:38;11.00;;;7.40;;
69890;SDS011;57170;43.964;21.262;2023-05-07T03:46:04;14.27;;;7.80;;
69890;SDS011;57170;43.964;21.262;2023-05-07T03:48:31;12.25;;;7.00;;
69890;SDS011;57170;43.964;21.262;2023-05-07T03:50:57;11.40;;;7.13;;
69890;SDS011;57170;43.964;21.262;2023-05-07T03:53:23;17.25;;;7.65;;
69890;SDS011;57170;43.964;21.262;2023-05-07T03:55:49;8.75;;;7.03;;
69890;SDS011;57170;43.964;21.262;2023-05-07T03:58:15;9.55;;;5.72;;
69890;SDS011;57170;43.964;21.262;2023-05-07T04:00:42;7.13;;;6.40;;
69890;SDS011;57170;43.964;21.262;2023-05-07T04:03:08;11.23;;;6.40;;
69890;SDS011;57170;43.964;21.262;2023-05-07T04:05:34;9.38;;;6.75;;
69890;SDS011;57170;43.964;21.262;2023-05-07T04:08:00;9.00;;;6.00;;
69890;SDS011;57170;43.964;21.262;2023-05-07T04:10:27;10.82;;;5.95;;
69890;SDS011;57170;43.964;21.262;2023-05-07T04:12:53;7.15;;;6.05;;
69890;SDS011;57170;43.964;21.262;2023-05-07T04:15:19;8.80;;;6.13;;
69890;SDS011;57170;43.964;21.262;2023-05-07T04:17:45;14.20;;;6.50;;
69890;SDS011;57170;43.964;21.262;2023-05-07T04:20:15;7.78;;;5.43;;
69890;SDS011;57170;43.964;21.262;2023-05-07T04:22:42;7.45;;;6.07;;
69890;SDS011;57170;43.964;21.262;2023-05-07T04:25:08;8.35;;;6.03;;
69890;SDS011;57170;43.964;21.262;2023-05-07T04:27:35;6.13;;;5.30;;
69890;SDS011;57170;43.964;21.262;2023-05-07T04:30:02;7.43;;;5.18;;
69890;SDS011;57170;43.964;21.262;2023-05-07T04:32:28;7.68;;;5.55;;
69890;SDS011;57170;43.964;21.262;2023-05-07T04:34:55;8.38;;;5.65;;
69890;SDS011;57170;43.964;21.262;2023-05-07T04:37:21;7.57;;;5.57;;
69890;SDS011;57170;43.964;21.262;2023-05-07T04:39:48;8.55;;;5.72;;
69890;SDS011;57170;43.964;21.262;2023-05-07T04:42:15;7.07;;;6.10;;
69890;SDS011;57170;43.964;21.262;2023-05-07T04:44:41;6.82;;;6.05;;
69890;SDS011;57170;43.964;21.262;2023-05-07T04:47:07;6.97;;;5.35;;
69890;SDS011;57170;43.964;21.262;2023-05-07T04:49:33;5.55;;;4.93;;
69890;SDS011;57170;43.964;21.262;2023-05-07T04:51:59;6.03;;;5.43;;
69890;SDS011;57170;43.964;21.262;2023-05-07T04:54:26;7.35;;;5.03;;
69890;SDS011;57170;43.964;21.262;2023-05-07T04:56:52;7.05;;;5.25;;
69890;SDS011;57170;43.964;21.262;2023-05-07T04:59:18;6.68;;;5.57;;
69890;SDS011;57170;43.964;21.262;2023-05-07T05:01:44;7.28;;;5.57;;
69890;SDS011;57170;43.964;21.262;2023-05-07T05:04:10;7.88;;;6.22;;
69890;SDS011;57170;43.964;21.262;2023-05-07T05:06:36;8.05;;;6.53;;
69890;SDS011;57170;43.964;21.262;2023-05-07T05:09:02;8.20;;;6.65;;
69890;SDS011;57170;43.964;21.262;2023-05-07T05:11:30;7.80;;;7.00;;
69890;SDS011;57170;43.964;21.262;2023-05-07T05:13:56;7.75;;;6.95;;
69890;SDS011;57170;43.964;21.262;2023-05-07T05:16:22;9.98;;;7.65;;
69890;SDS011;57170;43.964;21.262;2023-05-07T05:18:48;9.50;;;7.57;;
69890;SDS011;57170;43.964;21.262;2023-05-07T05:21:15;13.57;;;6.88;;
69890;SDS011;57170;43.964;21.262;2023-05-07T05:23:41;7.68;;;6.35;;
69890;SDS011;57170;43.964;21.262;2023-05-07T05:26:07;10.77;;;8.10;;
69890;SDS011;57170;43.964;21.262;2023-05-07T05:28:33;9.73;;;8.30;;
69890;SDS011;57170;43.964;21.262;2023-05-07T05:30:59;11.68;;;9.82;;
69890;SDS011;57170;43.964;21.262;2023-05-07T05:33:25;12.23;;;9.57;;
69890;SDS011;57170;43.964;21.262;2023-05-07T05:35:51;9.77;;;8.77;;
69890;SDS011;57170;43.964;21.262;2023-05-07T05:38:17;10.20;;;8.27;;
69890;SDS011;57170;43.964;21.262;2023-05-07T05:40:43;10.50;;;8.30;;
69890;SDS011;57170;43.964;21.262;2023-05-07T05:43:09;9.77;;;7.90;;
69890;SDS011;57170;43.964;21.262;2023-05-07T05:45:35;11.95;;;9.00;;
69890;SDS011;57170;43.964;21.262;2023-05-07T05:48:02;12.30;;;8.77;;
69890;SDS011;57170;43.964;21.262;2023-05-07T05:50:28;10.30;;;8.38;;
69890;SDS011;57170;43.964;21.262;2023-05-07T05:52:54;9.95;;;8.23;;
69890;SDS011;57170;43.964;21.262;2023-05-07T05:55:21;10.57;;;8.43;;
69890;SDS011;57170;43.964;21.262;2023-05-07T05:57:47;11.32;;;7.88;;
69890;SDS011;57170;43.964;21.262;2023-05-07T06:00:13;8.13;;;7.10;;
69890;SDS011;57170;43.964;21.262;2023-05-07T06:02:40;8.27;;;7.45;;
69890;SDS011;57170;43.964;21.262;2023-05-07T06:05:07;6.25;;;5.55;;
69890;SDS011;57170;43.964;21.262;2023-05-07T06:07:34;6.28;;;5.57;;
69890;SDS011;57170;43.964;21.262;2023-05-07T06:10:00;5.90;;;5.40;;
69890;SDS011;57170;43.964;21.262;2023-05-07T06:12:26;5.38;;;4.82;;
69890;SDS011;57170;43.964;21.262;2023-05-07T06:14:52;5.45;;;4.95;;
69890;SDS011;57170;43.964;21.262;2023-05-07T06:17:19;13.30;;;4.85;;
69890;SDS011;57170;43.964;21.262;2023-05-07T06:19:45;5.05;;;4.40;;
69890;SDS011;57170;43.964;21.262;2023-05-07T06:22:11;5.38;;;4.57;;
69890;SDS011;57170;43.964;21.262;2023-05-07T06:24:37;17.40;;;7.53;;
69890;SDS011;57170;43.964;21.262;2023-05-07T06:27:03;5.35;;;4.55;;
69890;SDS011;57170;43.964;21.262;2023-05-07T06:29:29;7.93;;;4.40;;
69890;SDS011;57170;43.964;21.262;2023-05-07T06:32:05;5.50;;;4.97;;
69890;SDS011;57170;43.964;21.262;2023-05-07T06:34:32;6.78;;;4.68;;
69890;SDS011;57170;43.964;21.262;2023-05-07T06:36:58;5.97;;;5.35;;
69890;SDS011;57170;43.964;21.262;2023-05-07T06:39:24;7.32;;;5.72;;
69890;SDS011;57170;43.964;21.262;2023-05-07T06:41:50;8.48;;;5.18;;
69890;SDS011;57170;43.964;21.262;2023-05-07T06:44:17;6.25;;;5.65;;
69890;SDS011;57170;43.964;21.262;2023-05-07T06:46:43;7.15;;;5.28;;
69890;SDS011;57170;43.964;21.262;2023-05-07T06:49:10;6.30;;;5.00;;
69890;SDS011;57170;43.964;21.262;2023-05-07T06:51:36;8.65;;;5.35;;
69890;SDS011;57170;43.964;21.262;2023-05-07T06:54:02;6.05;;;5.45;;
69890;SDS011;57170;43.964;21.262;2023-05-07T06:56:29;6.40;;;5.47;;
69890;SDS011;57170;43.964;21.262;2023-05-07T06:58:55;6.78;;;6.18;;
69890;SDS011;57170;43.964;21.262;2023-05-07T07:01:21;7.53;;;5.60;;
69890;SDS011;57170;43.964;21.262;2023-05-07T07:03:47;6.50;;;5.90;;
69890;SDS011;57170;43.964;21.262;2023-05-07T07:06:14;7.53;;;6.00;;
69890;SDS011;57170;43.964;21.262;2023-05-07T07:08:40;8.63;;;6.88;;
69890;SDS011;57170;43.964;21.262;2023-05-07T07:11:06;9.52;;;6.63;;
69890;SDS011;57170;43.964;21.262;2023-05-07T07:13:32;5.53;;;5.03;;
69890;SDS011;57170;43.964;21.262;2023-05-07T07:15:58;9.68;;;5.82;;
69890;SDS011;57170;43.964;21.262;2023-05-07T07:18:25;7.10;;;5.93;;
69890;SDS011;57170;43.964;21.262;2023-05-07T07:20:51;6.38;;;5.00;;
69890;SDS011;57170;43.964;21.262;2023-05-07T07:23:17;5.60;;;5.07;;
69890;SDS011;57170;43.964;21.262;2023-05-07T07:25:43;5.85;;;5.18;;
69890;SDS011;57170;43.964;21.262;2023-05-07T07:28:10;6.30;;;5.60;;
69890;SDS011;57170;43.964;21.262;2023-05-07T07:30:36;6.28;;;5.53;;
69890;SDS011;57170;43.964;21.262;2023-05-07T07:33:02;6.53;;;5.55;;
69890;SDS011;57170;43.964;21.262;2023-05-07T07:35:29;7.07;;;5.43;;
69890;SDS011;57170;43.964;21.262;2023-05-07T07:37:55;6.97;;;5.28;;
69890;SDS011;57170;43.964;21.262;2023-05-07T07:40:21;7.10;;;5.10;;
69890;SDS011;57170;43.964;21.262;2023-05-07T07:42:47;9.00;;;5.50;;
69890;SDS011;57170;43.964;21.262;2023-05-07T07:45:13;6.25;;;5.65;;
69890;SDS011;57170;43.964;21.262;2023-05-07T07:47:40;7.50;;;4.90;;
69890;SDS011;57170;43.964;21.262;2023-05-07T07:50:06;8.25;;;5.10;;
69890;SDS011;57170;43.964;21.262;2023-05-07T07:52:33;6.78;;;5.70;;
69890;SDS011;57170;43.964;21.262;2023-05-07T07:54:59;5.50;;;5.00;;
69890;SDS011;57170;43.964;21.262;2023-05-07T07:57:25;5.78;;;5.20;;
69890;SDS011;57170;43.964;21.262;2023-05-07T07:59:51;7.68;;;5.15;;
69890;SDS011;57170;43.964;21.262;2023-05-07T08:02:17;6.40;;;5.80;;
69890;SDS011;57170;43.964;21.262;2023-05-07T08:04:43;7.20;;;6.03;;
69890;SDS011;57170;43.964;21.262;2023-05-07T08:07:10;9.07;;;6.05;;
69890;SDS011;57170;43.964;21.262;2023-05-07T08:09:39;6.97;;;5.43;;
69890;SDS011;57170;43.964;21.262;2023-05-07T08:12:06;5.55;;;4.88;;
69890;SDS011;57170;43.964;21.262;2023-05-07T08:14:32;6.65;;;5.95;;
69890;SDS011;57170;43.964;21.262;2023-05-07T08:16:58;6.13;;;5.53;;
69890;SDS011;57170;43.964;21.262;2023-05-07T08:19:24;5.57;;;4.82;;
69890;SDS011;57170;43.964;21.262;2023-05-07T08:21:51;5.47;;;4.95;;
69890;SDS011;57170;43.964;21.262;2023-05-07T08:24:17;5.65;;;4.97;;
69890;SDS011;57170;43.964;21.262;2023-05-07T08:26:43;5.95;;;5.28;;
69890;SDS011;57170;43.964;21.262;2023-05-07T08:29:10;8.57;;;5.20;;
69890;SDS011;57170;43.964;21.262;2023-05-07T08:31:36;5.72;;;5.03;;
69890;SDS011;57170;43.964;21.262;2023-05-07T08:34:04;6.22;;;4.75;;
69890;SDS011;57170;43.964;21.262;2023-05-07T08:36:31;7.90;;;5.10;;
69890;SDS011;57170;43.964;21.262;2023-05-07T08:38:57;6.55;;;5.55;;
69890;SDS011;57170;43.964;21.262;2023-05-07T08:41:23;5.72;;;5.10;;
69890;SDS011;57170;43.964;21.262;2023-05-07T08:43:50;8.02;;;5.40;;
69890;SDS011;57170;43.964;21.262;2023-05-07T08:46:17;5.78;;;5.28;;
69890;SDS011;57170;43.964;21.262;2023-05-07T08:48:44;8.05;;;5.50;;
69890;SDS011;57170;43.964;21.262;2023-05-07T08:51:13;6.65;;;4.88;;
69890;SDS011;57170;43.964;21.262;2023-05-07T08:53:40;6.72;;;5.30;;
69890;SDS011;57170;43.964;21.262;2023-05-07T08:56:07;6.88;;;5.25;;
69890;SDS011;57170;43.964;21.262;2023-05-07T08:58:34;6.50;;;5.43;;
69890;SDS011;57170;43.964;21.262;2023-05-07T09:01:05;7.47;;;5.07;;
69890;SDS011;57170;43.964;21.262;2023-05-07T09:03:32;5.55;;;4.85;;
69890;SDS011;57170;43.964;21.262;2023-05-07T09:05:59;7.07;;;4.72;;
69890;SDS011;57170;43.964;21.262;2023-05-07T09:08:26;10.00;;;6.63;;
69890;SDS011;57170;43.964;21.262;2023-05-07T09:10:52;5.70;;;5.10;;
69890;SDS011;57170;43.964;21.262;2023-05-07T09:13:18;9.38;;;6.22;;
69890;SDS011;57170;43.964;21.262;2023-05-07T09:15:45;5.38;;;4.88;;
69890;SDS011;57170;43.964;21.262;2023-05-07T09:18:12;6.50;;;5.70;;
69890;SDS011;57170;43.964;21.262;2023-05-07T09:20:39;6.95;;;5.32;;
69890;SDS011;57170;43.964;21.262;2023-05-07T09:23:06;5.53;;;4.75;;
69890;SDS011;57170;43.964;21.262;2023-05-07T09:25:33;6.05;;;5.45;;
69890;SDS011;57170;43.964;21.262;2023-05-07T09:28:00;6.30;;;5.63;;
69890;SDS011;57170;43.964;21.262;2023-05-07T09:30:29;8.00;;;5.28;;
69890;SDS011;57170;43.964;21.262;2023-05-07T09:32:59;5.95;;;5.35;;
69890;SDS011;57170;43.964;21.262;2023-05-07T09:35:26;7.18;;;5.47;;
69890;SDS011;57170;43.964;21.262;2023-05-07T09:37:56;5.20;;;4.70;;
69890;SDS011;57170;43.964;21.262;2023-05-07T09:40:23;6.32;;;5.10;;
69890;SDS011;57170;43.964;21.262;2023-05-07T09:42:49;6.07;;;5.18;;
69890;SDS011;57170;43.964;21.262;2023-05-07T09:45:15;6.53;;;5.03;;
69890;SDS011;57170;43.964;21.262;2023-05-07T09:47:45;6.13;;;5.25;;
69890;SDS011;57170;43.964;21.262;2023-05-07T09:50:13;7.22;;;4.78;;
69890;SDS011;57170;43.964;21.262;2023-05-07T09:52:40;8.10;;;5.55;;
69890;SDS011;57170;43.964;21.262;2023-05-07T09:55:06;6.50;;;4.20;;
69890;SDS011;57170;43.964;21.262;2023-05-07T09:57:33;9.27;;;4.60;;
69890;SDS011;57170;43.964;21.262;2023-05-07T10:00:01;6.20;;;4.38;;
69890;SDS011;57170;43.964;21.262;2023-05-07T10:02:29;6.72;;;4.45;;
69890;SDS011;57170;43.964;21.262;2023-05-07T10:04:56;8.88;;;4.55;;
69890;SDS011;57170;43.964;21.262;2023-05-07T10:07:25;7.03;;;5.22;;
69890;SDS011;57170;43.964;21.262;2023-05-07T10:09:52;9.07;;;5.55;;
69890;SDS011;57170;43.964;21.262;2023-05-07T10:12:19;9.05;;;4.35;;
69890;SDS011;57170;43.964;21.262;2023-05-07T10:14:45;7.13;;;5.25;;
69890;SDS011;57170;43.964;21.262;2023-05-07T10:17:13;6.30;;;4.93;;
69890;SDS011;57170;43.964;21.262;2023-05-07T10:19:39;10.02;;;5.75;;
69890;SDS011;57170;43.964;21.262;2023-05-07T10:22:06;9.13;;;5.20;;
69890;SDS011;57170;43.964;21.262;2023-05-07T10:24:33;6.57;;;4.82;;
69890;SDS011;57170;43.964;21.262;2023-05-07T10:27:00;6.35;;;4.85;;
69890;SDS011;57170;43.964;21.262;2023-05-07T10:29:35;5.80;;;4.65;;
69890;SDS011;57170;43.964;21.262;2023-05-07T10:34:33;7.38;;;4.85;;
69890;SDS011;57170;43.964;21.262;2023-05-07T10:37:00;7.72;;;5.45;;
69890;SDS011;57170;43.964;21.262;2023-05-07T10:39:27;7.88;;;5.13;;
69890;SDS011;57170;43.964;21.262;2023-05-07T10:41:53;6.00;;;5.40;;
69890;SDS011;57170;43.964;21.262;2023-05-07T10:44:27;8.20;;;4.85;;
69890;SDS011;57170;43.964;21.262;2023-05-07T10:47:03;5.53;;;4.35;;
69890;SDS011;57170;43.964;21.262;2023-05-07T10:49:30;10.60;;;5.97;;
69890;SDS011;57170;43.964;21.262;2023-05-07T10:52:17;7.18;;;5.00;;
69890;SDS011;57170;43.964;21.262;2023-05-07T10:54:42;6.40;;;5.18;;
69890;SDS011;57170;43.964;21.262;2023-05-07T10:59:54;8.05;;;4.88;;
69890;SDS011;57170;43.964;21.262;2023-05-07T11:02:20;5.40;;;4.40;;
69890;SDS011;57170;43.964;21.262;2023-05-07T11:05:01;10.00;;;5.45;;
69890;SDS011;57170;43.964;21.262;2023-05-07T11:07:32;8.35;;;4.90;;
69890;SDS011;57170;43.964;21.262;2023-05-07T11:09:59;6.38;;;4.57;;
69890;SDS011;57170;43.964;21.262;2023-05-07T11:15:08;5.75;;;4.65;;
69890;SDS011;57170;43.964;21.262;2023-05-07T11:17:51;5.80;;;4.80;;
69890;SDS011;57170;43.964;21.262;2023-05-07T11:20:18;7.55;;;4.78;;
69890;SDS011;57170;43.964;21.262;2023-05-07T11:22:44;6.38;;;4.88;;
69890;SDS011;57170;43.964;21.262;2023-05-07T11:25:10;6.35;;;5.43;;
69890;SDS011;57170;43.964;21.262;2023-05-07T11:27:44;6.07;;;4.60;;
69890;SDS011;57170;43.964;21.262;2023-05-07T11:30:10;6.70;;;4.60;;
69890;SDS011;57170;43.964;21.262;2023-05-07T11:32:43;8.05;;;4.85;;
69890;SDS011;57170;43.964;21.262;2023-05-07T11:35:13;6.38;;;4.95;;
69890;SDS011;57170;43.964;21.262;2023-05-07T11:40:12;7.60;;;4.82;;
69890;SDS011;57170;43.964;21.262;2023-05-07T11:42:39;7.65;;;5.45;;
69890;SDS011;57170;43.964;21.262;2023-05-07T11:45:07;8.68;;;5.38;;
69890;SDS011;57170;43.964;21.262;2023-05-07T11:47:34;6.50;;;4.75;;
69890;SDS011;57170;43.964;21.262;2023-05-07T11:50:04;6.45;;;4.53;;
69890;SDS011;57170;43.964;21.262;2023-05-07T11:52:31;5.53;;;4.78;;
69890;SDS011;57170;43.964;21.262;2023-05-07T11:54:58;6.82;;;4.50;;
69890;SDS011;57170;43.964;21.262;2023-05-07T11:57:28;5.38;;;4.57;;
69890;SDS011;57170;43.964;21.262;2023-05-07T11:59:55;6.70;;;4.50;;
69890;SDS011;57170;43.964;21.262;2023-05-07T12:02:21;6.13;;;5.25;;
69890;SDS011;57170;43.964;21.262;2023-05-07T12:04:49;6.35;;;4.80;;
69890;SDS011;57170;43.964;21.262;2023-05-07T12:07:16;5.95;;;4.20;;
69890;SDS011;57170;43.964;21.262;2023-05-07T12:09:43;9.50;;;4.68;;
69890;SDS011;57170;43.964;21.262;2023-05-07T12:12:09;6.30;;;4.50;;
69890;SDS011;57170;43.964;21.262;2023-05-07T12:14:39;5.60;;;4.47;;
69890;SDS011;57170;43.964;21.262;2023-05-07T12:17:05;6.32;;;4.50;;
69890;SDS011;57170;43.964;21.262;2023-05-07T12:19:33;9.27;;;4.30;;
69890;SDS011;57170;43.964;21.262;2023-05-07T12:21:59;5.38;;;4.75;;
69890;SDS011;57170;43.964;21.262;2023-05-07T12:24:26;5.80;;;4.40;;
69890;SDS011;57170;43.964;21.262;2023-05-07T12:26:52;6.05;;;3.92;;
69890;SDS011;57170;43.964;21.262;2023-05-07T12:29:22;5.22;;;4.35;;
69890;SDS011;57170;43.964;21.262;2023-05-07T12:31:49;5.63;;;4.30;;
69890;SDS011;57170;43.964;21.262;2023-05-07T12:34:15;7.55;;;5.28;;
69890;SDS011;57170;43.964;21.262;2023-05-07T12:36:41;5.75;;;4.15;;
69890;SDS011;57170;43.964;21.262;2023-05-07T12:39:07;7.38;;;4.72;;
69890;SDS011;57170;43.964;21.262;2023-05-07T12:44:23;9.15;;;4.88;;
69890;SDS011;57170;43.964;21.262;2023-05-07T12:46:49;6.75;;;5.07;;
69890;SDS011;57170;43.964;21.262;2023-05-07T12:49:15;7.07;;;4.45;;
69890;SDS011;57170;43.964;21.262;2023-05-07T12:51:43;6.13;;;4.70;;
69890;SDS011;57170;43.964;21.262;2023-05-07T12:54:09;6.03;;;4.25;;
69890;SDS011;57170;43.964;21.262;2023-05-07T12:56:35;5.30;;;4.38;;
69890;SDS011;57170;43.964;21.262;2023-05-07T12:59:02;6.00;;;4.70;;
69890;SDS011;57170;43.964;21.262;2023-05-07T13:01:29;7.57;;;4.90;;
69890;SDS011;57170;43.964;21.262;2023-05-07T13:03:55;6.85;;;4.47;;
69890;SDS011;57170;43.964;21.262;2023-05-07T13:06:21;7.63;;;4.53;;
69890;SDS011;57170;43.964;21.262;2023-05-07T13:08:48;6.43;;;4.85;;
69890;SDS011;57170;43.964;21.262;2023-05-07T13:11:14;5.78;;;4.32;;
69890;SDS011;57170;43.964;21.262;2023-05-07T13:13:40;7.35;;;4.38;;
69890;SDS011;57170;43.964;21.262;2023-05-07T13:16:07;5.78;;;4.72;;
69890;SDS011;57170;43.964;21.262;2023-05-07T13:18:34;6.22;;;5.22;;
69890;SDS011;57170;43.964;21.262;2023-05-07T13:21:00;10.15;;;5.15;;
69890;SDS011;57170;43.964;21.262;2023-05-07T13:23:27;5.43;;;4.05;;
69890;SDS011;57170;43.964;21.262;2023-05-07T13:25:53;6.60;;;4.53;;
69890;SDS011;57170;43.964;21.262;2023-05-07T13:28:20;7.03;;;4.68;;
69890;SDS011;57170;43.964;21.262;2023-05-07T13:30:47;6.32;;;4.43;;
69890;SDS011;57170;43.964;21.262;2023-05-07T13:33:13;7.57;;;4.57;;
69890;SDS011;57170;43.964;21.262;2023-05-07T13:35:40;7.72;;;5.10;;
69890;SDS011;57170;43.964;21.262;2023-05-07T13:38:06;5.72;;;4.60;;
69890;SDS011;57170;43.964;21.262;2023-05-07T13:40:33;7.10;;;4.90;;
69890;SDS011;57170;43.964;21.262;2023-05-07T13:42:59;7.47;;;4.82;;
69890;SDS011;57170;43.964;21.262;2023-05-07T13:45:27;7.47;;;4.63;;
69890;SDS011;57170;43.964;21.262;2023-05-07T13:47:54;9.20;;;5.45;;
69890;SDS011;57170;43.964;21.262;2023-05-07T13:50:21;6.88;;;4.60;;
69890;SDS011;57170;43.964;21.262;2023-05-07T13:52:47;5.75;;;5.03;;
69890;SDS011;57170;43.964;21.262;2023-05-07T13:55:19;9.63;;;5.07;;
69890;SDS011;57170;43.964;21.262;2023-05-07T13:57:46;6.80;;;5.00;;
69890;SDS011;57170;43.964;21.262;2023-05-07T14:00:12;6.88;;;4.70;;
69890;SDS011;57170;43.964;21.262;2023-05-07T14:02:39;5.00;;;4.18;;
69890;SDS011;57170;43.964;21.262;2023-05-07T14:05:06;7.80;;;5.18;;
69890;SDS011;57170;43.964;21.262;2023-05-07T14:07:32;5.15;;;4.65;;
69890;SDS011;57170;43.964;21.262;2023-05-07T14:09:58;5.55;;;4.40;;
69890;SDS011;57170;43.964;21.262;2023-05-07T14:12:24;5.10;;;4.32;;
69890;SDS011;57170;43.964;21.262;2023-05-07T14:14:50;7.10;;;4.72;;
69890;SDS011;57170;43.964;21.262;2023-05-07T14:17:17;5.78;;;4.68;;
69890;SDS011;57170;43.964;21.262;2023-05-07T14:19:43;5.30;;;4.57;;
69890;SDS011;57170;43.964;21.262;2023-05-07T14:22:09;6.55;;;5.40;;
69890;SDS011;57170;43.964;21.262;2023-05-07T14:24:35;6.20;;;4.63;;
69890;SDS011;57170;43.964;21.262;2023-05-07T14:27:01;7.00;;;4.50;;
69890;SDS011;57170;43.964;21.262;2023-05-07T14:29:28;6.65;;;4.93;;
69890;SDS011;57170;43.964;21.262;2023-05-07T14:31:54;7.90;;;4.45;;
69890;SDS011;57170;43.964;21.262;2023-05-07T14:34:20;8.75;;;4.07;;
69890;SDS011;57170;43.964;21.262;2023-05-07T14:36:46;6.07;;;3.97;;
69890;SDS011;57170;43.964;21.262;2023-05-07T14:39:12;4.82;;;4.28;;
69890;SDS011;57170;43.964;21.262;2023-05-07T14:41:38;6.88;;;4.82;;
69890;SDS011;57170;43.964;21.262;2023-05-07T14:44:04;6.68;;;4.47;;